createdAt,value
2022-11-20T00:00:28.496Z,-5.61
2022-11-20T00:01:28.448Z,-5.65
2022-11-20T00:02:28.512Z,-5.67
2022-11-20T00:03:28.445Z,-5.74
2022-11-20T00:04:28.432Z,-5.75
2022-11-20T00:05:28.431Z,-5.61
2022-11-20T00:06:28.562Z,-5.59
2022-11-20T00:07:28.470Z,-5.53
2022-11-20T00:08:28.425Z,-5.60
2022-11-20T00:09:28.434Z,-5.57
2022-11-20T00:10:28.421Z,-5.56
2022-11-20T00:11:28.406Z,-5.65
2022-11-20T00:12:28.957Z,-5.59
2022-11-20T00:13:28.391Z,-5.51
2022-11-20T00:14:28.400Z,-5.59
2022-11-20T00:15:28.365Z,-5.63
2022-11-20T00:16:28.383Z,-5.59
2022-11-20T00:17:28.374Z,-5.63
2022-11-20T00:18:28.376Z,-5.72
2022-11-20T00:19:28.356Z,-5.68
2022-11-20T00:20:28.354Z,-5.68
2022-11-20T00:21:28.332Z,-5.75
2022-11-20T00:22:28.341Z,-5.67
2022-11-20T00:23:28.326Z,-5.61
2022-11-20T00:24:28.319Z,-5.67
2022-11-20T00:25:28.317Z,-5.68
2022-11-20T00:26:28.330Z,-5.63
2022-11-20T00:27:28.292Z,-5.74
2022-11-20T00:28:28.314Z,-5.59
2022-11-20T00:29:28.271Z,-5.72
2022-11-20T00:30:28.279Z,-5.85
2022-11-20T00:31:28.274Z,-5.81
2022-11-20T00:32:28.312Z,-5.79
2022-11-20T00:33:28.265Z,-5.79
2022-11-20T00:34:28.289Z,-5.78
2022-11-20T00:35:28.234Z,-5.77
2022-11-20T00:36:28.236Z,-5.77
2022-11-20T00:37:28.347Z,-5.77
2022-11-20T00:38:28.273Z,-5.83
2022-11-20T00:39:28.216Z,-5.75
2022-11-20T00:40:28.236Z,-5.63
2022-11-20T00:41:28.203Z,-5.67
2022-11-20T00:42:28.220Z,-5.70
2022-11-20T00:43:28.202Z,-5.74
2022-11-20T00:44:28.246Z,-5.78
2022-11-20T00:45:28.184Z,-5.83
2022-11-20T00:46:28.228Z,-5.83
2022-11-20T00:47:28.162Z,-5.83
2022-11-20T00:48:28.196Z,-5.86
2022-11-20T00:49:28.160Z,-5.81
2022-11-20T00:50:28.159Z,-5.93
2022-11-20T00:51:28.167Z,-5.95
2022-11-20T00:52:28.159Z,-5.83
2022-11-20T00:53:28.150Z,-6.06
2022-11-20T00:54:28.306Z,-5.95
2022-11-20T00:55:28.135Z,-5.96
2022-11-20T00:56:28.145Z,-5.93
2022-11-20T00:57:28.157Z,-5.95
2022-11-20T00:58:28.124Z,-6.03
2022-11-20T00:59:28.107Z,-5.93
2022-11-20T01:00:28.116Z,-6.07
2022-11-20T01:01:28.929Z,-6.07
2022-11-20T01:02:28.094Z,-5.96
2022-11-20T01:03:28.091Z,-6.00
2022-11-20T01:04:28.078Z,-6.04
2022-11-20T01:05:28.087Z,-6.00
2022-11-20T01:06:29.477Z,-6.11
2022-11-20T01:07:28.803Z,-6.17
2022-11-20T01:08:28.116Z,-6.17
2022-11-20T01:09:28.053Z,-6.13
2022-11-20T01:10:28.071Z,-6.14
2022-11-20T01:11:28.057Z,-6.22
2022-11-20T01:12:28.059Z,-6.16
2022-11-20T01:13:28.033Z,-6.06
2022-11-20T01:14:28.043Z,-6.17
2022-11-20T01:15:28.016Z,-6.21
2022-11-20T01:16:28.595Z,-6.27
2022-11-20T01:17:49.010Z,-6.16
2022-11-20T01:18:28.010Z,-6.31
2022-11-20T01:19:27.999Z,-6.21
2022-11-20T01:20:30.584Z,-6.18
2022-11-20T01:21:27.988Z,-6.21
2022-11-20T01:22:28.915Z,-6.28
2022-11-20T01:23:28.167Z,-6.31
2022-11-20T01:24:27.973Z,-6.32
2022-11-20T01:25:27.967Z,-6.31
2022-11-20T01:26:27.986Z,-6.34
2022-11-20T01:27:27.979Z,-6.28
2022-11-20T01:28:27.983Z,-6.27
2022-11-20T01:29:28.689Z,-6.24
2022-11-20T01:30:27.971Z,-6.32
2022-11-20T01:31:27.940Z,-6.27
2022-11-20T01:32:27.924Z,-6.22
2022-11-20T01:33:27.927Z,-6.24
2022-11-20T01:34:27.942Z,-6.21
2022-11-20T01:35:27.903Z,-6.35
2022-11-20T01:36:27.905Z,-6.43
2022-11-20T01:37:27.908Z,-6.35
2022-11-20T01:38:27.897Z,-6.40
2022-11-20T01:39:27.970Z,-6.28
2022-11-20T01:40:27.965Z,-6.22
2022-11-20T01:41:27.887Z,-6.21
2022-11-20T01:42:27.885Z,-6.24
2022-11-20T01:43:27.884Z,-6.18
2022-11-20T01:44:27.871Z,-6.21
2022-11-20T01:45:27.968Z,-6.22
2022-11-20T01:46:28.037Z,-6.22
2022-11-20T01:47:27.859Z,-6.18
2022-11-20T01:48:27.830Z,-6.21
2022-11-20T01:49:27.841Z,-6.21
2022-11-20T01:50:28.287Z,-6.16
2022-11-20T01:51:27.819Z,-6.17
2022-11-20T01:52:27.817Z,-6.21
2022-11-20T01:53:27.834Z,-6.22
2022-11-20T01:54:27.796Z,-6.18
2022-11-20T01:55:28.250Z,-6.31
2022-11-20T01:56:27.809Z,-6.32
2022-11-20T01:57:27.804Z,-6.31
2022-11-20T01:58:27.776Z,-6.24
2022-11-20T01:59:27.794Z,-6.18
2022-11-20T02:00:27.831Z,-6.27
2022-11-20T02:01:27.962Z,-6.18
2022-11-20T02:02:27.767Z,-6.22
2022-11-20T02:03:27.760Z,-6.25
2022-11-20T02:04:27.819Z,-6.24
2022-11-20T02:05:27.760Z,-6.16
2022-11-20T02:06:27.743Z,-6.18
2022-11-20T02:07:27.822Z,-6.29
2022-11-20T02:08:27.723Z,-6.34
2022-11-20T02:09:27.733Z,-6.34
2022-11-20T02:10:27.728Z,-6.29
2022-11-20T02:11:27.717Z,-6.27
2022-11-20T02:12:27.729Z,-6.27
2022-11-20T02:13:27.719Z,-6.24
2022-11-20T02:14:28.197Z,-6.17
2022-11-20T02:15:30.420Z,-6.22
2022-11-20T02:16:27.684Z,-6.13
2022-11-20T02:17:27.688Z,-6.13
2022-11-20T02:18:27.708Z,-6.13
2022-11-20T02:19:27.676Z,-6.08
2022-11-20T02:20:27.673Z,-6.18
2022-11-20T02:21:27.674Z,-6.27
2022-11-20T02:22:27.653Z,-6.17
2022-11-20T02:23:27.667Z,-6.29
2022-11-20T02:24:27.659Z,-6.27
2022-11-20T02:25:27.646Z,-6.17
2022-11-20T02:26:27.640Z,-6.27
2022-11-20T02:27:27.650Z,-6.42
2022-11-20T02:28:27.624Z,-6.28
2022-11-20T02:29:27.629Z,-6.29
2022-11-20T02:30:27.622Z,-6.34
2022-11-20T02:31:29.951Z,-6.37
2022-11-20T02:32:27.610Z,-6.45
2022-11-20T02:33:27.622Z,-6.34
2022-11-20T02:34:28.133Z,-6.45
2022-11-20T02:35:27.601Z,-6.46
2022-11-20T02:36:27.575Z,-6.49
2022-11-20T02:37:27.589Z,-6.42
2022-11-20T02:38:27.578Z,-6.50
2022-11-20T02:39:27.633Z,-6.55
2022-11-20T02:40:27.598Z,-6.56
2022-11-20T02:41:27.590Z,-6.46
2022-11-20T02:42:27.536Z,-6.67
2022-11-20T02:43:27.546Z,-6.61
2022-11-20T02:44:27.537Z,-6.55
2022-11-20T02:45:27.552Z,-6.64
2022-11-20T02:46:27.524Z,-6.62
2022-11-20T02:47:27.548Z,-6.59
2022-11-20T02:48:30.237Z,-6.64
2022-11-20T02:49:28.512Z,-6.64
2022-11-20T02:50:27.509Z,-6.67
2022-11-20T02:51:27.506Z,-6.67
2022-11-20T02:52:27.502Z,-6.68
2022-11-20T02:53:27.527Z,-6.71
2022-11-20T02:54:27.481Z,-6.75
2022-11-20T02:55:27.496Z,-6.68
2022-11-20T02:56:27.462Z,-6.71
2022-11-20T02:57:27.471Z,-6.65
2022-11-20T02:58:29.872Z,-6.61
2022-11-20T02:59:27.481Z,-6.68
2022-11-20T03:00:27.453Z,-6.67
2022-11-20T03:01:27.565Z,-6.67
2022-11-20T03:02:27.451Z,-6.79
2022-11-20T03:03:27.445Z,-6.71
2022-11-20T03:04:27.437Z,-6.79
2022-11-20T03:05:27.521Z,-6.74
2022-11-20T03:06:27.419Z,-6.62
2022-11-20T03:07:27.473Z,-6.72
2022-11-20T03:08:27.414Z,-6.53
2022-11-20T03:09:27.417Z,-6.65
2022-11-20T03:10:27.417Z,-6.55
2022-11-20T03:11:27.404Z,-6.55
2022-11-20T03:12:27.430Z,-6.55
2022-11-20T03:13:27.403Z,-6.49
2022-11-20T03:14:27.385Z,-6.49
2022-11-20T03:15:27.383Z,-6.46
2022-11-20T03:16:27.379Z,-6.43
2022-11-20T03:17:27.383Z,-6.50
2022-11-20T03:18:27.383Z,-6.40
2022-11-20T03:19:27.350Z,-6.40
2022-11-20T03:20:27.376Z,-6.37
2022-11-20T03:21:27.364Z,-6.21
2022-11-20T03:22:27.349Z,-6.29
2022-11-20T03:23:27.363Z,-6.21
2022-11-20T03:24:27.340Z,-6.21
2022-11-20T03:25:27.326Z,-6.21
2022-11-20T03:26:27.343Z,-6.17
2022-11-20T03:27:27.327Z,-6.16
2022-11-20T03:28:28.055Z,-6.10
2022-11-20T03:29:27.358Z,-6.08
2022-11-20T03:30:30.542Z,-6.08
2022-11-20T03:31:27.296Z,-6.13
2022-11-20T03:32:27.305Z,-6.17
2022-11-20T03:33:27.291Z,-6.21
2022-11-20T03:34:27.293Z,-6.22
2022-11-20T03:35:27.301Z,-6.29
2022-11-20T03:36:27.268Z,-6.21
2022-11-20T03:37:27.260Z,-6.24
2022-11-20T03:38:27.276Z,-6.22
2022-11-20T03:39:27.244Z,-6.14
2022-11-20T03:40:28.111Z,-6.11
2022-11-20T03:41:27.250Z,-6.17
2022-11-20T03:42:27.258Z,-6.27
2022-11-20T03:43:27.240Z,-6.27
2022-11-20T03:44:27.230Z,-6.22
2022-11-20T03:45:27.215Z,-6.16
2022-11-20T03:46:27.240Z,-6.16
2022-11-20T03:47:27.233Z,-6.08
2022-11-20T03:48:27.207Z,-6.04
2022-11-20T03:49:27.937Z,-6.13
2022-11-20T03:50:27.232Z,-5.96
2022-11-20T03:51:27.192Z,-5.89
2022-11-20T03:52:27.208Z,-5.88
2022-11-20T03:53:27.190Z,-5.88
2022-11-20T03:54:27.177Z,-5.86
2022-11-20T03:55:27.665Z,-5.85
2022-11-20T03:56:27.172Z,-5.92
2022-11-20T03:57:27.173Z,-5.79
2022-11-20T03:58:27.173Z,-5.85
2022-11-20T03:59:27.140Z,-5.77
2022-11-20T04:00:29.028Z,-5.75
2022-11-20T04:01:28.162Z,-5.72
2022-11-20T04:02:27.133Z,-5.78
2022-11-20T04:03:27.153Z,-5.78
2022-11-20T04:04:27.149Z,-5.77
2022-11-20T04:05:27.116Z,-5.78
2022-11-20T04:06:27.123Z,-5.61
2022-11-20T04:07:27.391Z,-5.50
2022-11-20T04:08:27.098Z,-5.47
2022-11-20T04:09:27.086Z,-5.41
2022-11-20T04:10:27.105Z,-5.28
2022-11-20T04:11:27.095Z,-5.20
2022-11-20T04:12:28.121Z,-5.21
2022-11-20T04:13:27.128Z,-5.20
2022-11-20T04:14:27.099Z,-5.20
2022-11-20T04:15:27.061Z,-5.11
2022-11-20T04:16:27.048Z,-5.17
2022-11-20T04:17:27.048Z,-5.05
2022-11-20T04:18:27.049Z,-5.11
2022-11-20T04:19:27.048Z,-5.02
2022-11-20T04:20:27.049Z,-4.92
2022-11-20T04:21:27.077Z,-4.95
2022-11-20T04:22:27.021Z,-4.91
2022-11-20T04:23:28.804Z,-4.91
2022-11-20T04:24:27.019Z,-4.85
2022-11-20T04:25:26.997Z,-4.84
2022-11-20T04:26:27.004Z,-4.75
2022-11-20T04:27:27.350Z,-4.82
2022-11-20T04:28:26.988Z,-4.80
2022-11-20T04:29:26.977Z,-4.89
2022-11-20T04:30:26.974Z,-4.87
2022-11-20T04:31:26.969Z,-4.84
2022-11-20T04:32:26.959Z,-4.71
2022-11-20T04:33:28.989Z,-4.81
2022-11-20T04:34:27.954Z,-4.70
2022-11-20T04:35:26.938Z,-4.74
2022-11-20T04:36:26.920Z,-4.78
2022-11-20T04:37:27.091Z,-4.73
2022-11-20T04:38:26.922Z,-4.71
2022-11-20T04:39:26.929Z,-4.56
2022-11-20T04:40:26.918Z,-4.63
2022-11-20T04:41:26.917Z,-4.53
2022-11-20T04:42:26.894Z,-4.53
2022-11-20T04:43:26.906Z,-4.53
2022-11-20T04:44:26.868Z,-4.49
2022-11-20T04:45:26.885Z,-4.52
2022-11-20T04:46:26.860Z,-4.52
2022-11-20T04:47:26.872Z,-4.44
2022-11-20T04:48:26.859Z,-4.41
2022-11-20T04:49:26.904Z,-4.48
2022-11-20T04:50:26.862Z,-4.30
2022-11-20T04:51:27.420Z,-4.28
2022-11-20T04:52:26.941Z,-4.21
2022-11-20T04:53:26.901Z,-4.25
2022-11-20T04:54:26.815Z,-4.10
2022-11-20T04:55:26.811Z,-4.15
2022-11-20T04:56:26.791Z,-4.06
2022-11-20T04:57:26.812Z,-4.20
2022-11-20T04:58:26.796Z,-4.18
2022-11-20T04:59:26.797Z,-4.15
2022-11-20T05:00:26.778Z,-4.17
2022-11-20T05:01:26.923Z,-4.17
2022-11-20T05:02:26.792Z,-4.12
2022-11-20T05:03:26.751Z,-4.09
2022-11-20T05:04:26.738Z,-4.12
2022-11-20T05:05:26.755Z,-4.25
2022-11-20T05:06:26.749Z,-4.20
2022-11-20T05:07:26.785Z,-4.18
2022-11-20T05:08:26.718Z,-4.17
2022-11-20T05:09:26.727Z,-4.14
2022-11-20T05:10:26.722Z,-4.06
2022-11-20T05:11:26.721Z,-3.99
2022-11-20T05:12:26.707Z,-4.07
2022-11-20T05:13:26.689Z,-3.94
2022-11-20T05:14:26.701Z,-4.02
2022-11-20T05:15:26.673Z,-3.96
2022-11-20T05:16:26.661Z,-3.89
2022-11-20T05:17:26.674Z,-3.88
2022-11-20T05:18:26.650Z,-3.87
2022-11-20T05:19:26.661Z,-3.89
2022-11-20T05:20:26.649Z,-3.87
2022-11-20T05:21:27.027Z,-3.88
2022-11-20T05:22:26.635Z,-3.92
2022-11-20T05:23:26.625Z,-3.88
2022-11-20T05:24:26.612Z,-3.89
2022-11-20T05:25:26.643Z,-3.85
2022-11-20T05:26:26.619Z,-3.77
2022-11-20T05:27:26.614Z,-3.79
2022-11-20T05:28:26.591Z,-3.79
2022-11-20T05:29:26.591Z,-3.88
2022-11-20T05:30:26.580Z,-3.78
2022-11-20T05:31:27.986Z,-3.82
2022-11-20T05:32:26.571Z,-3.79
2022-11-20T05:33:26.570Z,-3.77
2022-11-20T05:34:26.558Z,-3.77
2022-11-20T05:35:26.565Z,-3.70
2022-11-20T05:36:26.540Z,-3.78
2022-11-20T05:37:26.534Z,-3.72
2022-11-20T05:38:26.529Z,-3.77
2022-11-20T05:39:26.707Z,-3.92
2022-11-20T05:40:26.516Z,-3.81
2022-11-20T05:41:26.513Z,-3.88
2022-11-20T05:42:26.500Z,-3.89
2022-11-20T05:43:26.559Z,-3.88
2022-11-20T05:44:26.474Z,-3.74
2022-11-20T05:45:26.502Z,-3.79
2022-11-20T05:46:29.103Z,-3.70
2022-11-20T05:47:26.479Z,-3.77
2022-11-20T05:48:26.455Z,-3.77
2022-11-20T05:49:26.459Z,-3.77
2022-11-20T05:50:26.431Z,-3.74
2022-11-20T05:51:26.460Z,-3.69
2022-11-20T05:52:26.430Z,-3.62
2022-11-20T05:53:27.794Z,-3.63
2022-11-20T05:54:26.417Z,-3.59
2022-11-20T05:55:26.413Z,-3.59
2022-11-20T05:56:26.396Z,-3.59
2022-11-20T05:57:26.418Z,-3.52
2022-11-20T05:58:27.323Z,-3.59
2022-11-20T05:59:26.411Z,-3.51
2022-11-20T06:00:26.390Z,-3.57
2022-11-20T06:01:26.399Z,-3.52
2022-11-20T06:02:26.402Z,-3.42
2022-11-20T06:03:26.760Z,-3.48
2022-11-20T06:04:26.353Z,-3.41
2022-11-20T06:05:26.373Z,-3.44
2022-11-20T06:06:26.363Z,-3.38
2022-11-20T06:07:26.431Z,-3.38
2022-11-20T06:08:26.358Z,-3.31
2022-11-20T06:09:26.333Z,-3.38
2022-11-20T06:10:26.336Z,-3.36
2022-11-20T06:11:26.342Z,-3.36
2022-11-20T06:12:26.323Z,-3.24
2022-11-20T06:13:26.306Z,-3.24
2022-11-20T06:14:26.301Z,-3.15
2022-11-20T06:15:26.296Z,-3.27
2022-11-20T06:16:26.316Z,-3.13
2022-11-20T06:17:26.298Z,-3.21
2022-11-20T06:18:26.266Z,-3.15
2022-11-20T06:19:26.285Z,-3.13
2022-11-20T06:20:26.269Z,-3.16
2022-11-20T06:21:26.249Z,-3.23
2022-11-20T06:22:26.265Z,-3.18
2022-11-20T06:23:26.243Z,-3.15
2022-11-20T06:24:26.227Z,-3.21
2022-11-20T06:25:26.243Z,-3.08
2022-11-20T06:26:26.211Z,-3.15
2022-11-20T06:27:26.232Z,-3.21
2022-11-20T06:28:26.215Z,-3.16
2022-11-20T06:29:31.322Z,-3.08
2022-11-20T06:30:27.203Z,-3.03
2022-11-20T06:31:26.825Z,-3.23
2022-11-20T06:32:26.169Z,-3.27
2022-11-20T06:33:26.190Z,-3.24
2022-11-20T06:34:26.157Z,-3.15
2022-11-20T06:35:26.225Z,-3.08
2022-11-20T06:36:26.187Z,-3.18
2022-11-20T06:37:26.167Z,-3.12
2022-11-20T06:38:26.142Z,-3.20
2022-11-20T06:39:26.149Z,-3.09
2022-11-20T06:40:26.131Z,-3.21
2022-11-20T06:41:26.261Z,-3.08
2022-11-20T06:42:26.122Z,-3.05
2022-11-20T06:43:26.111Z,-3.05
2022-11-20T06:44:26.168Z,-2.94
2022-11-20T06:45:26.112Z,-3.09
2022-11-20T06:46:26.103Z,-3.03
2022-11-20T06:47:26.107Z,-3.09
2022-11-20T06:48:26.087Z,-3.05
2022-11-20T06:49:26.074Z,-3.02
2022-11-20T06:50:26.072Z,-3.10
2022-11-20T06:51:26.067Z,-3.18
2022-11-20T06:52:26.051Z,-3.20
2022-11-20T06:53:26.075Z,-3.12
2022-11-20T06:54:26.036Z,-3.13
2022-11-20T06:55:26.058Z,-3.24
2022-11-20T06:56:26.049Z,-3.24
2022-11-20T06:57:26.028Z,-3.29
2022-11-20T06:58:26.015Z,-3.42
2022-11-20T06:59:26.024Z,-3.41
2022-11-20T07:00:26.014Z,-3.39
2022-11-20T07:01:26.049Z,-3.38
2022-11-20T07:02:26.002Z,-3.57
2022-11-20T07:03:26.001Z,-3.57
2022-11-20T07:04:26.258Z,-3.54
2022-11-20T07:05:26.033Z,-3.60
2022-11-20T07:06:25.968Z,-3.70
2022-11-20T07:07:26.024Z,-3.74
2022-11-20T07:08:25.968Z,-3.66
2022-11-20T07:09:26.153Z,-3.84
2022-11-20T07:10:25.949Z,-3.79
2022-11-20T07:11:25.943Z,-3.70
2022-11-20T07:12:25.939Z,-3.55
2022-11-20T07:13:25.936Z,-3.57
2022-11-20T07:14:25.928Z,-3.55
2022-11-20T07:15:26.089Z,-3.54
2022-11-20T07:16:25.895Z,-3.34
2022-11-20T07:17:25.944Z,-3.34
2022-11-20T07:18:25.997Z,-3.38
2022-11-20T07:19:26.090Z,-3.36
2022-11-20T07:20:25.892Z,-3.21
2022-11-20T07:21:25.877Z,-3.18
2022-11-20T07:22:25.887Z,-3.12
2022-11-20T07:23:25.865Z,-3.16
2022-11-20T07:24:25.863Z,-3.05
2022-11-20T07:25:25.872Z,-2.98
2022-11-20T07:26:25.881Z,-2.97
2022-11-20T07:27:27.010Z,-2.84
2022-11-20T07:28:25.875Z,-2.92
2022-11-20T07:29:25.834Z,-2.80
2022-11-20T07:30:25.836Z,-2.70
2022-11-20T07:31:26.034Z,-2.87
2022-11-20T07:32:25.826Z,-2.79
2022-11-20T07:33:25.826Z,-2.73
2022-11-20T07:34:25.814Z,-2.77
2022-11-20T07:35:25.787Z,-2.73
2022-11-20T07:36:25.811Z,-2.64
2022-11-20T07:37:25.798Z,-2.61
2022-11-20T07:38:25.783Z,-2.55
2022-11-20T07:39:25.784Z,-2.52
2022-11-20T07:40:25.751Z,-2.38
2022-11-20T07:41:25.823Z,-2.43
2022-11-20T07:42:25.757Z,-2.34
2022-11-20T07:43:25.744Z,-2.33
2022-11-20T07:44:25.763Z,-2.34
2022-11-20T07:45:25.751Z,-2.29
2022-11-20T07:46:25.721Z,-2.22
2022-11-20T07:47:26.220Z,-2.22
2022-11-20T07:48:25.719Z,-2.26
2022-11-20T07:49:25.731Z,-2.18
2022-11-20T07:50:26.403Z,-2.27
2022-11-20T07:51:25.722Z,-2.18
2022-11-20T07:52:25.692Z,-2.19
2022-11-20T07:53:25.714Z,-2.19
2022-11-20T07:54:25.675Z,-2.26
2022-11-20T07:55:25.687Z,-2.27
2022-11-20T07:56:26.237Z,-2.18
2022-11-20T07:57:28.493Z,-2.21
2022-11-20T07:58:25.680Z,-2.19
2022-11-20T07:59:25.680Z,-2.08
2022-11-20T08:00:25.738Z,-2.09
2022-11-20T08:01:25.774Z,-1.94
2022-11-20T08:02:25.654Z,-1.97
2022-11-20T08:03:25.881Z,-1.93
2022-11-20T08:04:25.619Z,-1.88
2022-11-20T08:05:25.647Z,-1.80
2022-11-20T08:06:25.608Z,-1.85
2022-11-20T08:07:25.733Z,-1.75
2022-11-20T08:08:25.616Z,-1.76
2022-11-20T08:09:25.603Z,-1.72
2022-11-20T08:10:25.725Z,-1.70
2022-11-20T08:11:25.667Z,-1.64
2022-11-20T08:12:25.733Z,-1.59
2022-11-20T08:13:26.222Z,-1.67
2022-11-20T08:14:25.568Z,-1.62
2022-11-20T08:15:25.574Z,-1.59
2022-11-20T08:16:25.570Z,-1.62
2022-11-20T08:17:25.607Z,-1.54
2022-11-20T08:18:33.259Z,-1.52
2022-11-20T08:19:27.087Z,-1.54
2022-11-20T08:20:25.567Z,-1.49
2022-11-20T08:21:25.543Z,-1.64
2022-11-20T08:22:25.538Z,-1.55
2022-11-20T08:23:26.005Z,-1.69
2022-11-20T08:24:25.511Z,-1.65
2022-11-20T08:25:25.539Z,-1.67
2022-11-20T08:26:25.498Z,-1.73
2022-11-20T08:27:25.508Z,-1.76
2022-11-20T08:28:25.601Z,-1.78
2022-11-20T08:29:25.496Z,-1.79
2022-11-20T08:30:25.504Z,-1.82
2022-11-20T08:31:25.503Z,-1.83
2022-11-20T08:32:25.469Z,-1.72
2022-11-20T08:33:25.483Z,-1.70
2022-11-20T08:34:25.484Z,-1.61
2022-11-20T08:35:25.510Z,-1.59
2022-11-20T08:36:25.705Z,-1.52
2022-11-20T08:37:25.502Z,-1.40
2022-11-20T08:38:25.449Z,-1.34
2022-11-20T08:39:25.465Z,-1.37
2022-11-20T08:40:25.423Z,-1.15
2022-11-20T08:41:25.435Z,-1.11
2022-11-20T08:42:25.414Z,-1.05
2022-11-20T08:43:25.411Z,-1.10
2022-11-20T08:44:25.526Z,-0.95
2022-11-20T08:45:29.620Z,-0.90
2022-11-20T08:46:26.417Z,-0.94
2022-11-20T08:47:25.429Z,-0.92
2022-11-20T08:48:25.417Z,-0.89
2022-11-20T08:49:25.390Z,-0.68
2022-11-20T08:50:25.388Z,-0.68
2022-11-20T08:51:25.644Z,-0.67
2022-11-20T08:52:25.351Z,-0.67
2022-11-20T08:53:25.367Z,-0.73
2022-11-20T08:54:25.368Z,-0.46
2022-11-20T08:55:25.346Z,-0.49
2022-11-20T08:56:25.340Z,-0.50
2022-11-20T08:57:25.373Z,-0.45
2022-11-20T08:58:25.330Z,-0.50
2022-11-20T08:59:50.958Z,-0.43
2022-11-20T09:00:26.314Z,-0.43
2022-11-20T09:01:25.479Z,-0.43
2022-11-20T09:02:25.304Z,-0.52
2022-11-20T09:03:29.944Z,-0.58
2022-11-20T09:04:26.557Z,-0.52
2022-11-20T09:05:25.338Z,-0.42
2022-11-20T09:06:25.268Z,-0.46
2022-11-20T09:07:25.850Z,-0.39
2022-11-20T09:08:25.275Z,-0.35
2022-11-20T09:09:25.568Z,-0.32
2022-11-20T09:10:25.434Z,-0.17
2022-11-20T09:11:25.267Z,-0.14
2022-11-20T09:12:25.268Z,-0.11
2022-11-20T09:13:25.265Z,-0.01
2022-11-20T09:14:25.233Z,-0.03
2022-11-20T09:15:25.223Z,0.04
2022-11-20T09:16:25.226Z,-0.01
2022-11-20T09:17:25.219Z,0.17
2022-11-20T09:18:25.255Z,0.12
2022-11-20T09:19:41.067Z,0.15
2022-11-20T09:20:26.182Z,0.15
2022-11-20T09:21:25.216Z,0.11
2022-11-20T09:22:25.236Z,0.22
2022-11-20T09:23:25.186Z,0.15
2022-11-20T09:24:25.160Z,0.22
2022-11-20T09:25:25.220Z,0.17
2022-11-20T09:26:25.145Z,0.33
2022-11-20T09:27:25.155Z,0.25
2022-11-20T09:28:25.142Z,0.29
2022-11-20T09:29:25.154Z,0.40
2022-11-20T09:30:25.129Z,0.45
2022-11-20T09:31:25.142Z,0.40
2022-11-20T09:32:25.105Z,0.32
2022-11-20T09:33:25.284Z,0.33
2022-11-20T09:34:25.106Z,0.36
2022-11-20T09:35:25.102Z,0.36
2022-11-20T09:36:25.109Z,0.30
2022-11-20T09:37:25.079Z,0.43
2022-11-20T09:38:25.096Z,0.45
2022-11-20T09:39:25.116Z,0.37
2022-11-20T09:40:25.055Z,0.41
2022-11-20T09:41:25.062Z,0.41
2022-11-20T09:42:25.033Z,0.43
2022-11-20T09:43:25.035Z,0.53
2022-11-20T09:44:25.039Z,0.62
2022-11-20T09:45:26.594Z,0.53
2022-11-20T09:46:25.022Z,0.45
2022-11-20T09:47:25.039Z,0.56
2022-11-20T09:48:25.007Z,0.47
2022-11-20T09:49:30.704Z,0.56
2022-11-20T09:50:26.108Z,0.50
2022-11-20T09:51:24.992Z,0.60
2022-11-20T09:52:24.982Z,0.67
2022-11-20T09:53:24.991Z,0.59
2022-11-20T09:54:25.027Z,0.45
2022-11-20T09:55:24.958Z,0.47
2022-11-20T09:56:24.947Z,0.53
2022-11-20T09:57:24.966Z,0.63
2022-11-20T09:58:24.936Z,0.48
2022-11-20T09:59:25.742Z,0.63
2022-11-20T10:00:24.914Z,0.53
2022-11-20T10:01:25.196Z,0.55
2022-11-20T10:02:24.923Z,0.60
2022-11-20T10:03:24.912Z,0.48
2022-11-20T10:04:24.896Z,0.60
2022-11-20T10:05:24.882Z,0.51
2022-11-20T10:06:24.884Z,0.60
2022-11-20T10:07:33.097Z,0.63
2022-11-20T10:08:25.856Z,0.50
2022-11-20T10:09:25.021Z,0.60
2022-11-20T10:10:24.859Z,0.60
2022-11-20T10:11:24.860Z,0.66
2022-11-20T10:12:24.876Z,0.62
2022-11-20T10:13:24.850Z,0.67
2022-11-20T10:14:24.811Z,0.59
2022-11-20T10:15:24.818Z,0.70
2022-11-20T10:16:24.810Z,0.70
2022-11-20T10:17:24.802Z,0.69
2022-11-20T10:18:24.825Z,0.63
2022-11-20T10:19:24.885Z,0.56
2022-11-20T10:20:24.771Z,0.56
2022-11-20T10:21:24.795Z,0.45
2022-11-20T10:22:24.765Z,0.56
2022-11-20T10:23:26.104Z,0.60
2022-11-20T10:24:24.770Z,0.67
2022-11-20T10:25:24.788Z,0.64
2022-11-20T10:26:24.739Z,0.76
2022-11-20T10:27:24.731Z,0.69
2022-11-20T10:28:24.744Z,0.81
2022-11-20T10:29:25.003Z,0.85
2022-11-20T10:30:24.766Z,0.80
2022-11-20T10:31:24.753Z,0.90
2022-11-20T10:32:24.714Z,0.91
2022-11-20T10:33:27.109Z,1.08
2022-11-20T10:34:24.674Z,1.10
2022-11-20T10:35:24.682Z,1.06
2022-11-20T10:36:24.675Z,1.03
2022-11-20T10:37:24.679Z,1.08
2022-11-20T10:38:24.670Z,1.13
2022-11-20T10:39:25.109Z,1.26
2022-11-20T10:40:24.653Z,1.35
2022-11-20T10:41:24.621Z,1.46
2022-11-20T10:42:24.699Z,1.44
2022-11-20T10:43:24.621Z,1.45
2022-11-20T10:44:24.612Z,1.57
2022-11-20T10:45:24.612Z,1.55
2022-11-20T10:46:24.608Z,1.60
2022-11-20T10:47:24.594Z,1.55
2022-11-20T10:48:24.592Z,1.63
2022-11-20T10:49:25.258Z,1.56
2022-11-20T10:50:24.572Z,1.64
2022-11-20T10:51:25.024Z,1.63
2022-11-20T10:52:24.571Z,1.78
2022-11-20T10:53:24.558Z,1.80
2022-11-20T10:54:24.561Z,1.87
2022-11-20T10:55:24.542Z,1.73
2022-11-20T10:56:24.979Z,1.62
2022-11-20T10:57:24.528Z,1.53
2022-11-20T10:58:27.097Z,1.46
2022-11-20T10:59:24.804Z,1.36
2022-11-20T11:00:24.548Z,1.30
2022-11-20T11:01:24.704Z,1.27
2022-11-20T11:02:24.493Z,1.42
2022-11-20T11:03:24.489Z,1.39
2022-11-20T11:04:24.519Z,1.57
2022-11-20T11:05:24.496Z,1.64
2022-11-20T11:06:24.836Z,1.45
2022-11-20T11:07:24.536Z,1.52
2022-11-20T11:08:24.468Z,1.53
2022-11-20T11:09:24.710Z,1.60
2022-11-20T11:10:24.434Z,1.53
2022-11-20T11:11:24.572Z,1.49
2022-11-20T11:12:24.433Z,1.42
2022-11-20T11:13:24.413Z,1.35
2022-11-20T11:14:24.406Z,1.42
2022-11-20T11:15:24.419Z,1.42
2022-11-20T11:16:24.832Z,1.41
2022-11-20T11:17:24.395Z,1.31
2022-11-20T11:18:24.462Z,1.13
2022-11-20T11:19:24.702Z,1.03
2022-11-20T11:20:24.370Z,0.92
2022-11-20T11:21:24.554Z,1.10
2022-11-20T11:22:24.346Z,1.10
2022-11-20T11:23:24.434Z,1.21
2022-11-20T11:24:41.545Z,1.20
2022-11-20T11:25:25.356Z,1.31
2022-11-20T11:26:24.350Z,1.41
2022-11-20T11:27:24.400Z,1.59
2022-11-20T11:28:24.351Z,1.74
2022-11-20T11:29:24.714Z,1.82
2022-11-20T11:30:24.313Z,1.89
2022-11-20T11:31:24.298Z,2.10
2022-11-20T11:32:24.312Z,2.12
2022-11-20T11:33:24.321Z,2.24
2022-11-20T11:34:24.287Z,2.25
2022-11-20T11:35:24.272Z,2.28
2022-11-20T11:36:24.261Z,2.29
2022-11-20T11:37:24.269Z,2.24
2022-11-20T11:38:24.268Z,2.33
2022-11-20T11:39:24.760Z,2.07
2022-11-20T11:40:25.241Z,2.07
2022-11-20T11:41:24.226Z,1.85
2022-11-20T11:42:24.221Z,1.84
2022-11-20T11:43:24.239Z,1.84
2022-11-20T11:44:24.641Z,1.71
2022-11-20T11:45:24.225Z,1.53
2022-11-20T11:46:24.197Z,1.44
2022-11-20T11:47:24.199Z,1.44
2022-11-20T11:48:24.185Z,1.30
2022-11-20T11:49:25.582Z,1.21
2022-11-20T11:50:24.179Z,1.23
2022-11-20T11:51:24.181Z,1.23
2022-11-20T11:52:24.155Z,1.31
2022-11-20T11:53:24.201Z,1.39
2022-11-20T11:54:24.169Z,1.77
2022-11-20T11:55:24.670Z,2.14
2022-11-20T11:56:24.133Z,2.37
2022-11-20T11:57:24.123Z,2.61
2022-11-20T11:58:24.129Z,2.90
2022-11-20T11:59:24.484Z,3.09
2022-11-20T12:00:24.184Z,3.29
2022-11-20T12:01:24.155Z,3.56
2022-11-20T12:02:24.170Z,3.73
2022-11-20T12:03:24.103Z,3.99
2022-11-20T12:04:24.073Z,4.10
2022-11-20T12:05:24.103Z,4.28
2022-11-20T12:06:24.069Z,4.51
2022-11-20T12:07:45.612Z,4.54
2022-11-20T12:08:25.146Z,4.61
2022-11-20T12:09:24.378Z,4.63
2022-11-20T12:10:24.893Z,4.51
2022-11-20T12:11:24.047Z,4.66
2022-11-20T12:12:24.023Z,4.72
2022-11-20T12:13:24.047Z,5.04
2022-11-20T12:14:24.044Z,5.15
2022-11-20T12:15:24.068Z,5.22
2022-11-20T12:16:24.014Z,5.21
2022-11-20T12:17:24.010Z,5.00
2022-11-20T12:18:23.998Z,4.97
2022-11-20T12:19:24.268Z,4.93
2022-11-20T12:20:24.029Z,4.77
2022-11-20T12:21:23.979Z,4.56
2022-11-20T12:22:24.104Z,4.54
2022-11-20T12:23:23.977Z,4.46
2022-11-20T12:24:23.937Z,4.24
2022-11-20T12:25:24.560Z,4.39
2022-11-20T12:26:23.949Z,4.36
2022-11-20T12:27:23.942Z,4.46
2022-11-20T12:28:23.963Z,4.43
2022-11-20T12:29:24.374Z,4.09
2022-11-20T12:30:23.904Z,3.98
2022-11-20T12:31:23.917Z,3.67
2022-11-20T12:32:23.895Z,3.62
2022-11-20T12:33:23.890Z,3.70
2022-11-20T12:34:23.876Z,3.67
2022-11-20T12:35:23.901Z,3.80
2022-11-20T12:36:23.871Z,3.76
2022-11-20T12:37:23.880Z,3.85
2022-11-20T12:38:23.859Z,3.85
2022-11-20T12:39:24.321Z,3.74
2022-11-20T12:40:23.852Z,3.69
2022-11-20T12:41:23.835Z,3.67
2022-11-20T12:42:23.824Z,3.63
2022-11-20T12:43:23.837Z,3.60
2022-11-20T12:44:24.609Z,3.49
2022-11-20T12:45:23.823Z,3.59
2022-11-20T12:46:23.811Z,3.72
2022-11-20T12:47:23.818Z,3.64
2022-11-20T12:48:24.229Z,3.48
2022-11-20T12:49:24.114Z,3.36
2022-11-20T12:50:23.855Z,3.35
2022-11-20T12:51:23.789Z,3.22
2022-11-20T12:52:23.764Z,3.12
2022-11-20T12:53:23.825Z,2.99
2022-11-20T12:54:23.756Z,2.97
2022-11-20T12:55:23.827Z,3.00
2022-11-20T12:56:23.758Z,3.02
2022-11-20T12:57:23.817Z,2.89
2022-11-20T12:58:23.751Z,2.91
2022-11-20T12:59:24.162Z,2.93